Time;durP1;ratioP1;P1;durP2;ratioP2;P2;SDS_P1;SDS_P2;PMS_P1;PMS_P2;Temp;Humidity;BMP_temperature;BMP_pressure;BME280_temperature;BME280_humidity;BME280_pressure;Samples;Min_cycle;Max_cycle;Signal;HPM_P1;HPM_P2
2022/12/14 00:01:56;;;;;;;4.03;3.73;;;20.20;54.60;;;;;;5051251;28;20460;-62
2022/12/14 00:04:24;;;;;;;3.70;3.40;;;20.20;54.50;;;;;;5051973;28;20449;-62
2022/12/14 00:06:52;;;;;;;4.50;4.20;;;20.20;54.50;;;;;;5050715;28;20536;-63
2022/12/14 00:09:22;;;;;;;3.87;3.57;;;20.20;54.40;;;;;;5046782;28;20548;-63
2022/12/14 00:11:50;;;;;;;3.83;3.53;;;20.20;54.30;;;;;;5058523;28;20476;-63
2022/12/14 00:14:18;;;;;;;3.70;3.40;;;20.20;54.30;;;;;;5050254;28;20456;-62
2022/12/14 00:16:47;;;;;;;3.80;3.50;;;20.20;54.30;;;;;;5050074;28;20502;-63
2022/12/14 00:19:15;;;;;;;3.10;2.90;;;20.20;54.30;;;;;;5051665;28;20502;-63
2022/12/14 00:21:44;;;;;;;3.10;2.90;;;20.10;54.20;;;;;;5051160;28;20535;-61
2022/12/14 00:24:13;;;;;;;3.43;3.23;;;20.10;54.20;;;;;;5046888;28;20513;-63
2022/12/14 00:26:42;;;;;;;3.33;3.03;;;20.10;54.30;;;;;;5044954;28;20489;-62
2022/12/14 00:29:11;;;;;;;4.00;3.50;;;20.10;54.30;;;;;;5041096;28;20477;-63
2022/12/14 00:31:39;;;;;;;3.50;3.30;;;20.00;54.30;;;;;;5054983;28;20566;-63
2022/12/14 00:34:07;;;;;;;3.50;3.30;;;20.00;54.40;;;;;;5049885;28;20499;-61
2022/12/14 00:36:36;;;;;;;3.67;3.37;;;20.00;54.40;;;;;;5050198;28;21030;-61
2022/12/14 00:39:05;;;;;;;3.10;2.87;;;20.00;54.60;;;;;;5051223;28;20492;-62
2022/12/14 00:41:33;;;;;;;3.70;3.40;;;20.00;54.60;;;;;;5062940;28;20444;-63
2022/12/14 00:44:03;;;;;;;2.93;2.73;;;20.00;54.60;;;;;;5050429;28;20466;-62
2022/12/14 00:46:31;;;;;;;3.63;3.33;;;20.00;54.70;;;;;;5055796;28;20475;-62
2022/12/14 00:48:59;;;;;;;2.97;2.77;;;20.00;54.50;;;;;;5051929;28;20518;-63
2022/12/14 00:51:27;;;;;;;4.87;4.57;;;20.00;54.50;;;;;;5054913;28;21007;-63
2022/12/14 00:53:56;;;;;;;3.47;3.17;;;20.10;54.50;;;;;;5052617;28;20809;-62
2022/12/14 00:56:24;;;;;;;3.63;3.23;;;20.10;54.50;;;;;;5049737;28;20944;-63
2022/12/14 00:58:53;;;;;;;3.43;3.13;;;20.10;54.40;;;;;;5055818;28;20519;-63
2022/12/14 01:01:23;;;;;;;3.43;3.10;;;20.10;54.40;;;;;;5049211;28;20569;-62
2022/12/14 01:04:15;;;;;;;3.10;2.90;;;20.10;54.40;;;;;;5057068;28;20444;-63
2022/12/14 01:06:39;;;;;;;4.00;3.60;;;20.10;54.40;;;;;;5051244;28;20927;-63
2022/12/14 01:09:08;;;;;;;4.13;3.73;;;20.10;54.30;;;;;;5051482;28;20456;-62
2022/12/14 01:11:36;;;;;;;3.70;3.40;;;20.10;54.30;;;;;;5050150;28;20489;-62
2022/12/14 01:14:04;;;;;;;3.13;2.93;;;20.10;54.30;;;;;;5055100;28;20447;-63
2022/12/14 01:16:34;;;;;;;3.30;3.03;;;20.10;54.20;;;;;;5049737;28;21036;-62
2022/12/14 01:19:02;;;;;;;3.60;3.30;;;20.10;54.20;;;;;;5050652;28;20452;-62
2022/12/14 01:21:31;;;;;;;3.43;3.20;;;20.10;54.20;;;;;;5051099;28;20888;-62
2022/12/14 01:24:01;;;;;;;2.87;2.67;;;20.10;54.20;;;;;;5051428;28;20540;-62
2022/12/14 01:26:32;;;;;;;3.17;2.97;;;20.10;54.10;;;;;;5038365;28;20452;-62
2022/12/14 01:29:00;;;;;;;3.43;3.13;;;20.10;54.10;;;;;;5050366;28;20853;-63
2022/12/14 01:31:30;;;;;;;3.33;3.03;;;20.10;54.10;;;;;;5059140;28;20453;-62
2022/12/14 01:34:00;;;;;;;3.13;2.93;;;20.00;54.10;;;;;;5060451;28;20484;-62
2022/12/14 01:36:31;;;;;;;3.40;3.20;;;20.00;54.20;;;;;;5053520;28;20552;-62
2022/12/14 01:39:00;;;;;;;3.47;3.17;;;20.00;54.10;;;;;;5050342;28;21003;-62
2022/12/14 01:41:30;;;;;;;3.20;3.00;;;20.00;54.20;;;;;;5059339;28;20482;-62
2022/12/14 01:44:00;;;;;;;2.80;2.60;;;20.00;54.10;;;;;;5059613;28;20527;-62
2022/12/14 01:46:34;;;;;;;3.60;3.30;;;20.00;54.20;;;;;;5042318;28;20959;-62
2022/12/14 01:49:11;;;;;;;3.63;3.33;;;20.00;54.20;;;;;;5063319;28;20480;-62
2022/12/14 01:51:41;;;;;;;3.13;2.93;;;20.00;54.10;;;;;;5057331;28;20504;-62
2022/12/14 01:54:12;;;;;;;3.03;2.83;;;20.00;54.10;;;;;;5053889;28;20557;-62
2022/12/14 01:56:44;;;;;;;3.17;2.93;;;20.00;54.20;;;;;;5050949;28;20504;-62
2022/12/14 01:59:18;;;;;;;3.00;2.77;;;20.00;54.10;;;;;;5038333;28;20811;-62
2022/12/14 02:01:46;;;;;;;3.10;2.90;;;20.00;54.10;;;;;;5054302;28;20444;-62
2022/12/14 02:04:17;;;;;;;2.87;2.67;;;20.00;54.10;;;;;;5056632;28;20834;-63
2022/12/14 02:06:48;;;;;;;2.87;2.67;;;20.00;54.10;;;;;;5060020;28;20464;-63
2022/12/14 02:09:20;;;;;;;3.03;2.83;;;20.00;54.10;;;;;;5059233;28;20490;-62
2022/12/14 02:11:55;;;;;;;2.93;2.67;;;20.00;54.10;;;;;;5056754;28;20887;-62
2022/12/14 02:14:24;;;;;;;2.97;2.77;;;20.00;54.10;;;;;;5052938;28;20532;-62
2022/12/14 02:16:54;;;;;;;3.17;2.63;;;20.00;54.00;;;;;;5051780;28;20475;-62
2022/12/14 02:19:24;;;;;;;3.10;2.90;;;20.00;54.00;;;;;;5053165;28;20531;-63
2022/12/14 02:22:14;;;;;;;3.00;2.80;;;20.00;54.00;;;;;;5053642;28;20489;-62
2022/12/14 02:25:06;;;;;;;3.60;3.30;;;20.00;54.00;;;;;;5053169;28;20830;-62
2022/12/14 02:28:03;;;;;;;3.37;3.13;;;20.00;54.00;;;;;;5049660;28;20523;-63
2022/12/14 02:30:37;;;;;;;3.20;2.90;;;20.00;53.90;;;;;;5054026;28;20484;-62
2022/12/14 02:33:25;;;;;;;3.13;2.93;;;20.00;53.90;;;;;;5054447;28;20471;-62
2022/12/14 02:35:59;;;;;;;3.37;3.07;;;20.00;53.90;;;;;;5059482;28;20957;-62
2022/12/14 02:38:41;;;;;;;3.67;3.37;;;20.00;53.90;;;;;;5052985;28;20522;-65
2022/12/14 02:41:17;;;;;;;2.40;2.30;;;20.00;53.90;;;;;;5044636;28;20443;-63
2022/12/14 02:43:55;;;;;;;2.80;2.60;;;20.00;53.90;;;;;;5052900;28;20537;-62
2022/12/14 02:46:29;;;;;;;3.13;2.83;;;20.00;53.90;;;;;;5043204;28;20530;-62
2022/12/14 02:49:03;;;;;;;2.90;2.70;;;20.00;53.90;;;;;;5045125;28;20726;-64
2022/12/14 02:51:41;;;;;;;4.37;2.80;;;20.10;53.80;;;;;;5052163;28;20455;-62
2022/12/14 02:54:13;;;;;;;3.13;2.83;;;20.00;53.80;;;;;;5054987;28;20477;-61
2022/12/14 02:56:47;;;;;;;3.37;3.07;;;20.00;53.80;;;;;;5051374;28;20575;-62
2022/12/14 02:59:17;;;;;;;3.17;2.87;;;20.00;53.80;;;;;;5051776;28;20559;-63
2022/12/14 03:01:49;;;;;;;3.33;3.10;;;20.00;53.80;;;;;;5060899;28;20514;-62
2022/12/14 03:04:19;;;;;;;3.20;3.00;;;20.00;53.80;;;;;;5053092;28;20447;-61
2022/12/14 03:06:57;;;;;;;3.03;2.80;;;20.00;53.80;;;;;;5053561;28;20457;-63
2022/12/14 03:09:29;;;;;;;2.43;2.23;;;20.00;53.80;;;;;;5053395;28;20803;-63
2022/12/14 03:12:04;;;;;;;2.80;2.60;;;20.00;53.80;;;;;;5053540;28;20446;-62
2022/12/14 03:14:37;;;;;;;3.37;3.07;;;20.00;53.80;;;;;;5065988;28;20789;-62
2022/12/14 03:17:13;;;;;;;2.33;2.23;;;20.00;53.70;;;;;;5054045;28;20492;-62
2022/12/14 03:19:52;;;;;;;3.40;2.70;;;20.00;53.70;;;;;;5052892;28;20444;-63
2022/12/14 03:22:23;;;;;;;2.90;2.70;;;20.00;53.70;;;;;;5047130;28;20451;-63
2022/12/14 03:24:57;;;;;;;2.73;2.53;;;20.00;53.70;;;;;;5049025;28;20516;-62
2022/12/14 03:27:30;;;;;;;2.90;2.70;;;20.00;53.70;;;;;;5064419;28;20558;-62
2022/12/14 03:30:02;;;;;;;2.87;2.63;;;20.00;53.80;;;;;;5050739;28;20877;-62
2022/12/14 03:32:36;;;;;;;2.60;2.40;;;20.00;53.80;;;;;;5052113;28;20461;-67
2022/12/14 03:35:07;;;;;;;2.60;2.40;;;20.00;53.80;;;;;;5040132;28;21036;-62
2022/12/14 03:37:41;;;;;;;3.10;2.90;;;20.00;53.70;;;;;;5049403;28;20823;-62
2022/12/14 03:40:13;;;;;;;2.80;2.60;;;20.00;53.70;;;;;;5051968;28;20440;-61
2022/12/14 03:42:53;;;;;;;2.70;2.50;;;20.00;53.70;;;;;;5051671;28;20535;-64
2022/12/14 03:45:28;;;;;;;3.40;3.10;;;20.00;53.70;;;;;;5051048;28;20481;-62
2022/12/14 03:48:07;;;;;;;3.43;3.23;;;20.00;53.70;;;;;;5059102;28;20547;-62
2022/12/14 03:50:40;;;;;;;2.90;2.70;;;20.00;53.70;;;;;;5037793;28;20966;-62
2022/12/14 03:53:13;;;;;;;2.70;2.50;;;20.00;53.70;;;;;;5054119;28;20583;-62
2022/12/14 03:55:53;;;;;;;2.63;2.53;;;20.00;53.70;;;;;;5050186;28;20488;-66
2022/12/14 03:58:30;;;;;;;3.20;2.90;;;20.00;53.70;;;;;;5044256;28;20515;-63
2022/12/14 04:01:06;;;;;;;2.60;2.43;;;20.00;53.70;;;;;;5048832;28;20462;-63
2022/12/14 04:03:45;;;;;;;3.10;2.90;;;20.00;53.70;;;;;;5050622;28;20449;-62
2022/12/14 04:06:20;;;;;;;2.60;2.50;;;20.00;53.70;;;;;;5062122;28;20948;-62
2022/12/14 04:08:53;;;;;;;3.10;2.90;;;20.00;53.70;;;;;;5051567;28;20470;-62
2022/12/14 04:20:00;;;;;;;2.87;2.60;;;20.00;53.60;;;;;;5048833;28;20452;-62
2022/12/14 04:22:33;;;;;;;2.63;2.53;;;20.00;53.60;;;;;;5051168;28;20484;-62
2022/12/14 04:27:55;;;;;;;2.93;2.70;;;20.00;53.60;;;;;;5048864;28;21044;-62
2022/12/14 04:30:23;;;;;;;3.40;3.10;;;20.00;53.60;;;;;;5051532;28;20539;-61
2022/12/14 04:32:55;;;;;;;2.53;2.33;;;20.00;53.50;;;;;;5050672;28;20519;-62
2022/12/14 04:35:29;;;;;;;2.83;2.57;;;20.00;53.60;;;;;;5050489;28;20939;-62
2022/12/14 04:38:02;;;;;;;3.17;2.97;;;20.00;53.60;;;;;;5048780;28;20534;-64
2022/12/14 04:40:33;;;;;;;2.67;2.47;;;20.00;53.60;;;;;;5058897;28;20866;-62
2022/12/14 04:43:07;;;;;;;2.10;2.00;;;20.00;53.60;;;;;;5046415;28;21015;-63
2022/12/14 04:45:40;;;;;;;2.70;2.50;;;20.00;53.60;;;;;;5053365;28;20529;-62
2022/12/14 04:48:12;;;;;;;3.40;3.10;;;20.00;53.60;;;;;;5051940;28;20480;-64
2022/12/14 04:50:46;;;;;;;2.40;2.30;;;20.00;53.50;;;;;;5068239;28;21165;-62
2022/12/14 04:53:21;;;;;;;3.00;2.80;;;20.00;53.50;;;;;;5057865;28;20540;-62
2022/12/14 04:55:54;;;;;;;3.13;2.80;;;20.00;53.50;;;;;;5041311;28;20523;-62
2022/12/14 04:58:26;;;;;;;2.70;2.50;;;20.00;53.50;;;;;;5048884;28;20547;-62
2022/12/14 05:01:12;;;;;;;2.67;2.47;;;20.00;53.50;;;;;;5051312;28;20499;-62
2022/12/14 05:03:51;;;;;;;2.67;2.47;;;20.00;53.50;;;;;;5048422;28;20567;-62
2022/12/14 05:06:26;;;;;;;2.17;2.03;;;20.00;53.50;;;;;;5042169;28;20581;-62
2022/12/14 05:09:09;;;;;;;3.00;2.80;;;20.00;53.50;;;;;;5050446;28;20537;-62
2022/12/14 05:11:42;;;;;;;2.30;2.20;;;20.00;53.50;;;;;;5045018;28;20990;-62
2022/12/14 05:14:26;;;;;;;2.60;2.40;;;19.90;53.50;;;;;;5048334;28;20475;-62
2022/12/14 05:16:55;;;;;;;2.97;2.73;;;19.90;53.40;;;;;;5051546;28;20546;-62
2022/12/14 05:19:25;;;;;;;2.70;2.50;;;20.00;53.40;;;;;;5053094;28;20506;-63
2022/12/14 05:21:55;;;;;;;4.90;2.80;;;19.90;53.40;;;;;;5048560;28;20438;-64
2022/12/14 05:24:23;;;;;;;3.00;2.73;;;19.90;53.40;;;;;;5054393;28;20535;-62
2022/12/14 05:26:52;;;;;;;3.27;2.97;;;20.00;53.40;;;;;;5050436;28;20453;-62
2022/12/14 05:29:20;;;;;;;2.60;2.40;;;20.00;53.30;;;;;;5051414;28;20548;-62
2022/12/14 05:31:51;;;;;;;2.90;2.70;;;19.90;53.40;;;;;;5052645;28;20506;-63
2022/12/14 05:34:19;;;;;;;2.77;2.57;;;20.00;53.40;;;;;;5053175;28;20585;-62
2022/12/14 05:36:47;;;;;;;2.80;2.60;;;19.90;53.40;;;;;;5045462;28;20484;-64
2022/12/14 05:39:17;;;;;;;3.00;2.80;;;19.90;53.30;;;;;;5051541;28;20452;-63
2022/12/14 05:41:45;;;;;;;3.00;2.80;;;19.90;53.30;;;;;;5051996;28;20491;-62
2022/12/14 05:44:16;;;;;;;2.73;2.57;;;19.90;53.30;;;;;;5060609;28;20538;-62
2022/12/14 05:46:44;;;;;;;2.73;2.53;;;19.90;53.30;;;;;;5050338;28;20497;-61
2022/12/14 05:49:13;;;;;;;2.57;2.40;;;19.90;53.30;;;;;;5058524;28;20470;-61
2022/12/14 05:51:42;;;;;;;2.80;2.60;;;19.90;53.40;;;;;;5054329;28;20556;-61
2022/12/14 05:54:10;;;;;;;2.60;2.40;;;20.00;53.40;;;;;;5049268;28;20508;-62
2022/12/14 05:56:39;;;;;;;2.83;2.60;;;20.00;53.50;;;;;;5046398;28;20485;-61
2022/12/14 05:59:08;;;;;;;2.90;2.70;;;20.00;53.60;;;;;;5052349;28;20562;-62
2022/12/14 06:01:36;;;;;;;12.23;3.10;;;20.00;53.70;;;;;;5048306;28;20484;-62
2022/12/14 06:04:05;;;;;;;2.80;2.60;;;20.00;53.80;;;;;;5049174;28;20854;-62
2022/12/14 06:06:33;;;;;;;3.23;2.50;;;20.00;53.90;;;;;;5043508;28;20466;-62
2022/12/14 06:09:02;;;;;;;2.70;2.50;;;20.00;53.90;;;;;;5050173;28;20534;-63
2022/12/14 06:11:30;;;;;;;4.13;3.60;;;20.00;53.90;;;;;;5042927;28;20468;-66
2022/12/14 06:13:59;;;;;;;2.90;2.27;;;20.00;53.90;;;;;;5048475;28;20463;-63
2022/12/14 06:16:28;;;;;;;2.93;2.70;;;20.00;54.00;;;;;;5044253;28;20487;-63
2022/12/14 06:18:58;;;;;;;3.60;2.83;;;20.00;54.00;;;;;;5045059;28;21383;-63
2022/12/14 06:21:27;;;;;;;2.77;2.43;;;20.00;54.00;;;;;;5047051;28;20452;-63
2022/12/14 06:23:56;;;;;;;4.50;2.50;;;20.00;54.10;;;;;;5048081;28;21007;-63
2022/12/14 06:26:25;;;;;;;2.80;2.53;;;20.00;54.20;;;;;;5045258;28;20463;-63
2022/12/14 06:28:54;;;;;;;4.23;3.53;;;20.00;54.30;;;;;;5049881;28;20547;-62
2022/12/14 06:31:26;;;;;;;2.80;2.50;;;20.00;54.30;;;;;;5050525;28;20479;-63
2022/12/14 06:33:56;;;;;;;4.93;3.10;;;20.00;54.30;;;;;;5046166;28;20449;-66
2022/12/14 06:36:27;;;;;;;2.93;2.73;;;20.00;54.40;;;;;;5046449;28;20823;-64
2022/12/14 06:38:56;;;;;;;3.77;2.70;;;20.00;54.60;;;;;;5049675;28;20460;-63
2022/12/14 06:41:24;;;;;;;2.80;2.60;;;20.00;54.60;;;;;;5049065;28;20444;-63
2022/12/14 06:43:53;;;;;;;4.10;2.80;;;20.00;54.70;;;;;;5047794;28;20455;-63
2022/12/14 06:46:24;;;;;;;3.47;3.10;;;20.00;54.70;;;;;;5052594;28;20474;-64
2022/12/14 06:48:53;;;;;;;3.03;2.80;;;20.00;54.70;;;;;;5042511;28;21217;-63
2022/12/14 06:51:23;;;;;;;2.93;2.73;;;20.00;54.70;;;;;;5042072;28;20487;-63
2022/12/14 06:53:52;;;;;;;4.27;3.10;;;20.00;54.70;;;;;;5047445;28;20548;-63
2022/12/14 06:56:22;;;;;;;6.17;3.07;;;19.90;54.70;;;;;;5052346;28;20608;-63
2022/12/14 06:58:51;;;;;;;3.97;3.20;;;19.90;54.70;;;;;;5050046;28;20528;-63
2022/12/14 07:01:21;;;;;;;6.37;3.27;;;20.00;54.60;;;;;;5052213;28;20453;-63
2022/12/14 07:03:52;;;;;;;4.47;3.43;;;20.00;54.60;;;;;;5050099;28;20536;-63
2022/12/14 07:06:21;;;;;;;3.93;3.57;;;20.00;54.60;;;;;;5051607;28;20445;-63
2022/12/14 07:08:52;;;;;;;6.23;3.90;;;20.00;54.50;;;;;;5047493;28;21238;-63
2022/12/14 07:11:21;;;;;;;7.60;3.77;;;20.00;54.50;;;;;;5049035;28;20595;-66
2022/12/14 07:13:49;;;;;;;5.20;3.90;;;20.00;54.40;;;;;;5048295;28;20541;-62
2022/12/14 07:16:19;;;;;;;12.03;4.03;;;20.00;54.40;;;;;;5044167;28;20495;-63
2022/12/14 07:18:50;;;;;;;9.40;3.87;;;20.00;54.50;;;;;;5040322;28;20944;-62
2022/12/14 07:21:20;;;;;;;5.00;3.93;;;20.00;54.50;;;;;;5052914;28;20447;-62
2022/12/14 07:23:51;;;;;;;8.97;3.50;;;20.00;54.50;;;;;;5051707;28;20444;-62
2022/12/14 07:26:21;;;;;;;7.43;4.30;;;20.00;54.50;;;;;;5052007;28;20551;-62
2022/12/14 07:28:50;;;;;;;4.73;4.27;;;20.00;54.50;;;;;;5056653;28;20909;-62
2022/12/14 07:31:21;;;;;;;5.90;3.90;;;20.00;54.50;;;;;;5053085;28;20478;-62
2022/12/14 07:33:53;;;;;;;5.00;3.23;;;20.00;54.50;;;;;;5045584;28;20809;-62
2022/12/14 07:36:22;;;;;;;6.63;4.03;;;20.00;54.50;;;;;;5052229;28;20500;-62
2022/12/14 07:38:51;;;;;;;5.93;3.80;;;20.00;54.50;;;;;;5047280;28;20470;-62
2022/12/14 07:41:21;;;;;;;5.27;3.97;;;20.00;54.50;;;;;;5050559;28;21327;-62
2022/12/14 07:43:52;;;;;;;5.00;4.57;;;20.00;54.50;;;;;;5050088;28;20460;-65
2022/12/14 07:46:22;;;;;;;4.87;3.93;;;20.00;54.60;;;;;;5054589;28;20452;-62
2022/12/14 07:48:54;;;;;;;5.27;4.03;;;20.00;54.60;;;;;;5039688;28;20472;-62
2022/12/14 07:51:24;;;;;;;4.57;3.67;;;20.00;54.60;;;;;;5051977;28;20448;-62
2022/12/14 07:53:53;;;;;;;3.37;3.17;;;20.00;54.70;;;;;;5045591;28;20458;-62
2022/12/14 07:56:23;;;;;;;2.90;2.70;;;20.00;54.70;;;;;;5056284;28;20474;-62
2022/12/14 07:58:52;;;;;;;4.57;3.60;;;20.00;54.80;;;;;;5049908;28;20457;-62
2022/12/14 08:01:23;;;;;;;5.23;3.07;;;20.00;54.80;;;;;;5055980;28;20467;-62
2022/12/14 08:03:55;;;;;;;6.07;3.50;;;20.00;54.70;;;;;;5054475;28;20448;-62
2022/12/14 08:06:26;;;;;;;6.93;3.27;;;20.00;54.70;;;;;;5051539;28;20454;-62
2022/12/14 08:08:55;;;;;;;3.97;3.53;;;20.10;54.60;;;;;;5060512;28;20436;-62
2022/12/14 08:11:24;;;;;;;6.40;3.57;;;20.10;54.60;;;;;;5052478;28;20526;-62
2022/12/14 08:13:53;;;;;;;3.80;3.43;;;20.10;54.60;;;;;;5056345;28;20463;-62
2022/12/14 08:16:21;;;;;;;4.00;3.60;;;20.10;54.50;;;;;;5051195;28;20491;-62
2022/12/14 08:18:52;;;;;;;5.30;4.10;;;20.10;54.40;;;;;;5058546;28;20454;-62
2022/12/14 08:21:22;;;;;;;7.10;3.30;;;20.10;54.40;;;;;;5051061;28;20484;-62
2022/12/14 08:23:53;;;;;;;5.33;3.77;;;20.10;54.30;;;;;;5045944;28;20534;-62
2022/12/14 08:26:22;;;;;;;5.73;3.80;;;20.10;54.30;;;;;;5037589;28;20508;-62
2022/12/14 08:28:53;;;;;;;3.83;3.53;;;20.10;54.30;;;;;;5039882;28;20455;-62
2022/12/14 08:31:24;;;;;;;3.73;3.13;;;20.10;54.20;;;;;;5045467;28;20480;-62
2022/12/14 08:33:52;;;;;;;4.03;3.63;;;20.10;54.20;;;;;;5050628;28;20549;-62
2022/12/14 08:36:24;;;;;;;3.60;3.30;;;20.10;54.20;;;;;;5038609;28;20484;-62
2022/12/14 08:38:53;;;;;;;3.77;3.20;;;20.10;54.20;;;;;;5046671;28;20463;-62
2022/12/14 08:41:24;;;;;;;4.30;3.40;;;20.10;54.20;;;;;;5050350;28;20940;-62
2022/12/14 08:43:57;;;;;;;3.90;3.57;;;20.10;54.20;;;;;;5049084;28;20510;-62
2022/12/14 08:46:26;;;;;;;3.90;3.50;;;20.10;54.20;;;;;;5040420;28;20478;-64
2022/12/14 08:48:55;;;;;;;3.97;3.10;;;20.10;54.30;;;;;;5045452;28;20218;-63
2022/12/14 08:51:26;;;;;;;3.93;3.53;;;20.10;54.30;;;;;;5048497;28;20468;-66
2022/12/14 08:53:55;;;;;;;3.50;3.20;;;20.00;54.60;;;;;;5053083;28;21019;-63
2022/12/14 08:56:26;;;;;;;4.53;3.57;;;20.10;54.60;;;;;;5050721;28;20481;-62
2022/12/14 08:58:54;;;;;;;3.30;3.00;;;20.10;54.60;;;;;;5047149;28;20839;-62
2022/12/14 09:01:25;;;;;;;3.80;3.50;;;20.10;54.50;;;;;;5048966;28;20467;-62
2022/12/14 09:04:03;;;;;;;4.00;3.70;;;20.10;54.50;;;;;;5055361;28;20482;-62
2022/12/14 09:06:35;;;;;;;4.87;4.00;;;20.10;54.40;;;;;;5051679;28;20470;-63
2022/12/14 09:09:04;;;;;;;4.67;3.80;;;20.10;54.40;;;;;;5048959;28;20451;-62
2022/12/14 09:11:37;;;;;;;5.10;4.40;;;20.10;54.40;;;;;;5048254;28;20949;-62
2022/12/14 09:14:06;;;;;;;4.07;3.53;;;20.20;54.30;;;;;;5047237;28;20475;-62
2022/12/14 09:16:34;;;;;;;3.97;3.50;;;20.20;54.30;;;;;;5053316;28;20545;-63
2022/12/14 09:19:02;;;;;;;4.83;3.70;;;20.20;54.30;;;;;;5053763;28;20487;-62
2022/12/14 09:21:31;;;;;;;4.40;3.30;;;20.20;54.20;;;;;;5054982;28;20461;-62
2022/12/14 09:24:01;;;;;;;4.37;3.97;;;20.30;54.20;;;;;;5057978;28;20995;-62
2022/12/14 09:26:29;;;;;;;7.30;4.13;;;20.30;54.10;;;;;;5055769;28;20450;-62
2022/12/14 09:28:58;;;;;;;4.73;3.77;;;20.30;54.10;;;;;;5058602;28;20450;-62
2022/12/14 09:31:27;;;;;;;4.50;4.10;;;20.30;54.10;;;;;;5068005;28;20527;-62
2022/12/14 09:33:56;;;;;;;8.00;3.97;;;20.40;54.00;;;;;;5047738;28;20864;-62
2022/12/14 09:36:27;;;;;;;4.03;3.20;;;20.40;54.00;;;;;;5056590;28;20548;-63
2022/12/14 09:38:56;;;;;;;4.80;3.50;;;20.40;54.00;;;;;;5060530;28;20444;-62
2022/12/14 09:41:41;;;;;;;5.07;3.63;;;20.40;54.00;;;;;;5053332;28;20451;-63
2022/12/14 09:44:16;;;;;;;3.60;3.40;;;20.40;54.00;;;;;;5052152;28;20448;-62
2022/12/14 09:46:54;;;;;;;4.60;4.10;;;20.40;54.00;;;;;;5057921;28;20843;-62
2022/12/14 09:49:28;;;;;;;4.57;4.17;;;20.40;54.00;;;;;;5052791;28;21018;-62
2022/12/14 09:52:00;;;;;;;3.47;3.17;;;20.40;54.00;;;;;;5047700;28;20876;-63
2022/12/14 09:54:32;;;;;;;3.33;3.03;;;20.40;54.00;;;;;;5052874;28;20853;-63
2022/12/14 09:57:07;;;;;;;4.60;3.50;;;20.40;54.10;;;;;;5048474;28;20578;-62
2022/12/14 09:59:35;;;;;;;4.37;4.00;;;20.40;54.10;;;;;;5066306;28;20548;-63
2022/12/14 10:02:34;;;;;;;4.07;3.60;;;20.40;54.10;;;;;;5050264;28;20571;-62
2022/12/14 10:05:24;;;;;;;3.60;3.27;;;20.40;54.00;;;;;;5052011;28;20506;-63
2022/12/14 10:08:00;;;;;;;4.27;3.70;;;20.40;54.10;;;;;;5055015;28;20458;-62
2022/12/14 10:10:37;;;;;;;3.83;3.33;;;20.40;54.10;;;;;;5054874;28;20449;-62
2022/12/14 10:13:19;;;;;;;3.67;3.37;;;20.40;54.00;;;;;;5055487;28;21399;-63
2022/12/14 10:15:59;;;;;;;3.83;3.40;;;20.40;54.00;;;;;;5066660;28;20488;-63
2022/12/14 10:18:49;;;;;;;3.80;3.30;;;20.40;54.10;;;;;;5050565;28;20492;-62
2022/12/14 10:21:38;;;;;;;4.70;3.80;;;20.50;54.00;;;;;;5048355;28;21087;-63
2022/12/14 10:24:12;;;;;;;3.70;3.40;;;20.50;54.00;;;;;;5050683;28;20457;-62
2022/12/14 10:26:44;;;;;;;4.37;4.07;;;20.50;53.90;;;;;;5052163;28;20548;-63
2022/12/14 10:29:18;;;;;;;3.93;3.50;;;20.50;53.90;;;;;;5041012;28;20439;-62
2022/12/14 10:31:56;;;;;;;3.67;3.37;;;20.50;53.80;;;;;;5048360;28;20528;-62
2022/12/14 10:34:28;;;;;;;4.10;3.80;;;20.60;53.70;;;;;;5052029;28;20498;-62
2022/12/14 10:37:06;;;;;;;4.00;3.63;;;20.60;53.70;;;;;;5035662;28;20478;-62
2022/12/14 10:39:44;;;;;;;3.37;3.13;;;20.60;53.60;;;;;;5040739;28;20453;-63
2022/12/14 10:42:24;;;;;;;3.80;3.50;;;20.60;53.60;;;;;;5039996;28;20541;-62
2022/12/14 10:45:04;;;;;;;3.70;3.40;;;20.60;53.50;;;;;;5056168;28;20550;-62
2022/12/14 10:47:57;;;;;;;3.57;3.27;;;20.60;53.40;;;;;;5048619;28;20496;-62
2022/12/14 10:50:37;;;;;;;4.87;4.40;;;20.60;53.40;;;;;;5055083;28;20441;-63
2022/12/14 10:53:13;;;;;;;3.50;3.20;;;20.60;53.40;;;;;;5047720;28;20481;-63
2022/12/14 10:55:44;;;;;;;3.80;3.50;;;20.60;53.30;;;;;;5045952;28;20445;-63
2022/12/14 10:58:13;;;;;;;3.60;3.40;;;20.60;53.30;;;;;;5050466;28;20562;-62
2022/12/14 11:00:42;;;;;;;3.73;3.33;;;20.60;53.20;;;;;;5052697;28;20783;-62
2022/12/14 11:03:15;;;;;;;3.87;3.57;;;20.60;53.20;;;;;;5051897;28;20538;-63
2022/12/14 11:05:50;;;;;;;3.67;3.37;;;20.60;53.20;;;;;;5051228;28;20454;-62
2022/12/14 11:08:42;;;;;;;3.63;3.37;;;20.60;53.30;;;;;;5044031;28;20939;-62
2022/12/14 11:11:17;;;;;;;3.60;3.30;;;20.60;53.30;;;;;;5043726;28;20457;-62
2022/12/14 11:13:52;;;;;;;4.17;3.80;;;20.50;53.20;;;;;;5046748;28;20905;-61
2022/12/14 11:16:28;;;;;;;3.67;3.37;;;20.50;53.20;;;;;;5045450;28;20503;-61
2022/12/14 11:19:05;;;;;;;3.67;3.37;;;20.50;53.20;;;;;;5025075;28;20469;-61
2022/12/14 11:21:35;;;;;;;3.00;2.80;;;20.50;53.00;;;;;;5050701;28;20490;-62
2022/12/14 11:24:03;;;;;;;3.80;3.50;;;20.50;53.00;;;;;;5059755;28;20845;-61
2022/12/14 11:26:35;;;;;;;4.23;3.93;;;20.50;53.10;;;;;;5025416;28;20457;-61
2022/12/14 11:29:06;;;;;;;4.10;3.70;;;20.40;53.20;;;;;;5048310;28;20894;-61
2022/12/14 11:31:38;;;;;;;3.97;3.67;;;20.40;53.40;;;;;;5047097;28;20493;-61
2022/12/14 11:34:20;;;;;;;4.43;4.03;;;20.40;53.50;;;;;;5047293;28;20476;-60
2022/12/14 11:36:49;;;;;;;4.30;3.90;;;20.40;53.50;;;;;;5049935;28;20513;-61
2022/12/14 11:39:22;;;;;;;4.23;3.63;;;20.50;53.50;;;;;;5048337;28;20459;-61
2022/12/14 11:41:59;;;;;;;3.87;3.47;;;20.50;53.50;;;;;;5048416;28;20461;-62
2022/12/14 11:44:48;;;;;;;3.43;3.13;;;20.50;53.50;;;;;;5037135;28;20485;-60
2022/12/14 11:47:19;;;;;;;4.50;4.13;;;20.50;53.50;;;;;;5038219;28;20508;-61
2022/12/14 11:49:50;;;;;;;4.33;3.53;;;20.50;53.50;;;;;;5040113;28;20492;-61
2022/12/14 11:52:20;;;;;;;5.73;3.30;;;20.50;53.50;;;;;;5039374;28;20817;-60
2022/12/14 11:55:09;;;;;;;4.20;3.80;;;20.50;53.60;;;;;;5043900;28;20485;-61
2022/12/14 11:57:46;;;;;;;4.53;3.00;;;20.50;53.80;;;;;;5024651;28;20576;-61
2022/12/14 12:00:24;;;;;;;3.17;2.90;;;20.40;54.10;;;;;;5049804;28;20559;-61
2022/12/14 12:03:00;;;;;;;3.77;3.47;;;20.40;54.30;;;;;;5047537;28;20452;-61
2022/12/14 12:05:31;;;;;;;3.90;3.50;;;20.40;54.40;;;;;;5044075;28;20505;-63
2022/12/14 12:08:02;;;;;;;3.20;2.90;;;20.40;54.50;;;;;;5048740;28;20463;-61
2022/12/14 12:10:40;;;;;;;3.93;3.63;;;20.40;54.60;;;;;;5045521;28;20561;-61
2022/12/14 12:13:24;;;;;;;4.00;3.57;;;20.30;54.80;;;;;;5045782;28;20567;-61
2022/12/14 12:15:55;;;;;;;3.53;3.23;;;20.30;54.90;;;;;;5044654;28;20550;-61
2022/12/14 12:18:31;;;;;;;3.50;3.20;;;20.30;54.90;;;;;;5047866;28;20571;-60
2022/12/14 12:21:04;;;;;;;3.13;2.93;;;20.30;54.90;;;;;;5046892;28;20456;-62
2022/12/14 12:23:37;;;;;;;3.93;3.63;;;20.30;55.00;;;;;;5046435;28;20486;-62
2022/12/14 12:26:13;;;;;;;4.10;3.70;;;20.20;55.10;;;;;;5042979;28;20558;-63
2022/12/14 12:28:46;;;;;;;3.53;3.30;;;20.20;55.10;;;;;;5045740;28;20443;-62
2022/12/14 12:31:23;;;;;;;3.47;2.97;;;20.20;55.10;;;;;;5050253;28;20490;-62
2022/12/14 12:33:59;;;;;;;4.07;3.37;;;20.20;55.20;;;;;;5045046;28;20466;-62
2022/12/14 12:36:29;;;;;;;3.73;3.43;;;20.20;55.20;;;;;;5045784;28;20448;-63
2022/12/14 12:39:04;;;;;;;3.70;3.40;;;20.30;55.20;;;;;;5046410;28;20567;-62
2022/12/14 12:41:42;;;;;;;3.10;2.90;;;20.30;55.30;;;;;;5050854;28;20475;-62
2022/12/14 12:44:23;;;;;;;3.87;3.40;;;20.30;55.30;;;;;;5046624;28;20559;-61
2022/12/14 12:47:02;;;;;;;4.40;3.10;;;20.30;55.20;;;;;;5043780;28;20514;-61
2022/12/14 12:49:52;;;;;;;3.33;3.13;;;20.30;55.20;;;;;;5047852;28;20467;-61
2022/12/14 12:52:25;;;;;;;3.30;3.10;;;20.40;55.20;;;;;;5048330;28;20456;-61
2022/12/14 12:54:58;;;;;;;3.93;3.00;;;20.40;55.20;;;;;;5042505;28;20614;-61
2022/12/14 12:57:32;;;;;;;3.30;3.10;;;20.40;55.10;;;;;;5049471;28;20941;-60
2022/12/14 13:00:02;;;;;;;5.40;3.10;;;20.40;55.10;;;;;;5042972;28;20536;-62
2022/12/14 13:02:33;;;;;;;4.90;4.50;;;20.40;55.10;;;;;;5050454;28;20479;-62
2022/12/14 13:05:10;;;;;;;5.33;3.23;;;20.30;55.10;;;;;;5043660;28;20456;-62
2022/12/14 13:08:00;;;;;;;4.73;3.57;;;20.30;55.10;;;;;;5049970;28;20479;-61
2022/12/14 13:10:32;;;;;;;3.20;2.90;;;20.30;55.50;;;;;;5058656;28;20463;-62
2022/12/14 13:13:06;;;;;;;4.60;3.37;;;20.30;55.70;;;;;;5049650;28;20475;-62
2022/12/14 13:15:40;;;;;;;4.00;3.60;;;20.30;55.80;;;;;;5049786;28;20573;-62
2022/12/14 13:18:20;;;;;;;3.97;3.60;;;20.30;55.80;;;;;;5053041;28;20558;-62
2022/12/14 13:21:28;;;;;;;3.60;3.30;;;20.30;55.90;;;;;;5048955;28;20451;-62
2022/12/14 13:23:57;;;;;;;7.13;4.00;;;20.30;56.10;;;;;;5047225;28;20202;-62
2022/12/14 13:26:54;;;;;;;4.07;3.77;;;20.30;55.10;;;;;;5049765;28;20960;-61
2022/12/14 13:29:39;;;;;;;9.10;3.37;;;20.30;55.30;;;;;;5046111;28;20456;-63